Time;durP1;ratioP1;P1;durP2;ratioP2;P2;SDS_P1;SDS_P2;PMS_P1;PMS_P2;Temp;Humidity;BMP_temperature;BMP_pressure;BME280_temperature;BME280_humidity;BME280_pressure;Samples;Min_cycle;Max_cycle;Signal;HPM_P1;HPM_P2
2022/07/10 00:00:31;;;;;;;4.23;1.83;;;;;;;;;;5000490;28;20510;-41
2022/07/10 00:02:57;;;;;;;3.07;1.90;;;;;;;;;;5003654;28;20378;-41
2022/07/10 00:05:24;;;;;;;5.90;2.00;;;;;;;;;;5008248;28;20187;-41
2022/07/10 00:07:50;;;;;;;4.23;1.93;;;;;;;;;;5005662;28;20204;-42
2022/07/10 00:10:17;;;;;;;4.33;2.20;;;;;;;;;;5003736;28;20881;-40
2022/07/10 00:12:43;;;;;;;2.87;1.60;;;;;;;;;;5007351;28;20172;-42
2022/07/10 00:15:10;;;;;;;3.03;1.53;;;;;;;;;;5007828;28;20672;-42
2022/07/10 00:17:38;;;;;;;5.57;2.10;;;;;;;;;;5005147;28;20269;-42
2022/07/10 00:20:05;;;;;;;3.00;2.10;;;;;;;;;;5008320;28;20602;-42
2022/07/10 00:22:31;;;;;;;2.83;2.00;;;;;;;;;;5004924;28;20580;-42
2022/07/10 00:24:57;;;;;;;2.37;1.70;;;;;;;;;;5001617;28;20924;-42
2022/07/10 00:27:23;;;;;;;4.30;2.00;;;;;;;;;;5003949;28;20868;-42
2022/07/10 00:29:49;;;;;;;4.50;2.17;;;;;;;;;;5004786;28;20529;-41
2022/07/10 00:32:15;;;;;;;4.47;1.63;;;;;;;;;;5003746;28;20179;-42
2022/07/10 00:34:41;;;;;;;3.20;1.87;;;;;;;;;;5002902;28;20734;-42
2022/07/10 00:37:07;;;;;;;4.23;1.97;;;;;;;;;;5008243;28;20176;-41
2022/07/10 00:39:34;;;;;;;3.47;2.10;;;;;;;;;;5010889;28;20409;-42
2022/07/10 00:42:13;;;;;;;4.87;1.80;;;;;;;;;;5006168;28;20727;-41
2022/07/10 00:44:39;;;;;;;3.27;1.90;;;;;;;;;;5009659;28;20683;-40
2022/07/10 00:47:06;;;;;;;3.17;2.03;;;;;;;;;;5009828;28;20939;-40
2022/07/10 00:49:33;;;;;;;1.73;1.57;;;;;;;;;;5009073;28;20184;-41
2022/07/10 00:52:00;;;;;;;1.93;1.70;;;;;;;;;;5009435;28;21458;-40
2022/07/10 00:54:27;;;;;;;3.97;1.70;;;;;;;;;;5010399;28;20652;-41
2022/07/10 00:56:53;;;;;;;3.47;1.77;;;;;;;;;;5006556;28;20639;-40
2022/07/10 00:59:20;;;;;;;2.43;1.73;;;;;;;;;;5008823;28;20337;-41
2022/07/10 01:01:46;;;;;;;2.30;1.70;;;;;;;;;;5010941;28;20204;-41
2022/07/10 01:04:12;;;;;;;2.50;1.87;;;;;;;;;;5010188;28;20176;-41
2022/07/10 01:06:38;;;;;;;2.77;1.80;;;;;;;;;;5004513;28;20790;-41
2022/07/10 01:09:04;;;;;;;3.27;2.13;;;;;;;;;;5008740;28;20737;-41
2022/07/10 01:11:32;;;;;;;5.47;2.60;;;;;;;;;;5012250;28;20172;-41
2022/07/10 01:13:58;;;;;;;3.20;2.20;;;;;;;;;;5007938;28;20173;-39
2022/07/10 01:16:24;;;;;;;2.43;2.03;;;;;;;;;;5006933;28;20741;-41
2022/07/10 01:18:50;;;;;;;3.50;2.20;;;;;;;;;;5010373;28;20188;-41
2022/07/10 01:21:32;;;;;;;4.40;2.50;;;;;;;;;;5007059;28;20548;-41
2022/07/10 01:23:59;;;;;;;2.60;2.13;;;;;;;;;;5009283;28;20195;-39
2022/07/10 01:26:25;;;;;;;4.90;2.03;;;;;;;;;;5008488;28;20563;-41
2022/07/10 01:28:52;;;;;;;3.90;2.20;;;;;;;;;;5003861;28;20457;-41
2022/07/10 01:31:28;;;;;;;3.13;2.30;;;;;;;;;;5005056;28;20710;-41
2022/07/10 01:33:54;;;;;;;6.70;2.80;;;;;;;;;;5008439;28;20246;-41
2022/07/10 01:36:21;;;;;;;4.63;2.37;;;;;;;;;;5007536;28;20524;-39
2022/07/10 01:38:47;;;;;;;3.70;2.30;;;;;;;;;;5005325;28;20262;-40
2022/07/10 01:41:13;;;;;;;3.53;2.63;;;;;;;;;;5006322;28;20200;-40
2022/07/10 01:43:44;;;;;;;3.03;2.50;;;;;;;;;;5004260;28;20511;-40
2022/07/10 01:46:11;;;;;;;3.00;2.70;;;;;;;;;;5007748;28;20683;-41
2022/07/10 01:48:38;;;;;;;6.53;2.83;;;;;;;;;;5008523;28;20187;-40
2022/07/10 01:51:05;;;;;;;3.33;2.80;;;;;;;;;;5008461;28;20180;-41
2022/07/10 01:53:31;;;;;;;4.30;3.00;;;;;;;;;;5007248;28;20243;-41
2022/07/10 01:55:57;;;;;;;4.33;2.80;;;;;;;;;;5009386;28;20214;-41
2022/07/10 01:58:23;;;;;;;6.23;3.53;;;;;;;;;;5008582;28;20168;-41
2022/07/10 02:00:49;;;;;;;5.03;3.13;;;;;;;;;;5007297;28;20785;-40
2022/07/10 02:06:00;;;;;;;2.73;2.43;;;;;;;;;;5000282;28;20365;-41
2022/07/10 02:08:26;;;;;;;3.43;2.20;;;;;;;;;;5010211;28;20832;-40
2022/07/10 02:10:54;;;;;;;4.53;2.50;;;;;;;;;;5008994;28;20172;-41
2022/07/10 02:13:20;;;;;;;2.87;2.30;;;;;;;;;;5003685;28;20177;-41
2022/07/10 02:15:50;;;;;;;4.57;2.20;;;;;;;;;;5006715;28;20612;-41
2022/07/10 02:18:16;;;;;;;4.07;2.30;;;;;;;;;;5005475;28;20250;-42
2022/07/10 02:20:42;;;;;;;3.60;2.27;;;;;;;;;;5008345;28;20573;-40
2022/07/10 02:23:08;;;;;;;3.40;2.30;;;;;;;;;;5007057;28;21115;-40
2022/07/10 02:25:35;;;;;;;4.20;2.30;;;;;;;;;;5007300;28;21075;-41
2022/07/10 02:28:01;;;;;;;3.43;2.00;;;;;;;;;;5006239;28;20215;-41
2022/07/10 02:30:27;;;;;;;4.47;2.50;;;;;;;;;;5006232;28;20284;-41
2022/07/10 02:32:53;;;;;;;3.37;2.40;;;;;;;;;;5003583;28;20211;-41
2022/07/10 02:35:19;;;;;;;2.73;2.10;;;;;;;;;;5007912;28;20201;-40
2022/07/10 02:37:45;;;;;;;2.73;1.97;;;;;;;;;;5003434;28;20674;-41
2022/07/10 02:40:11;;;;;;;3.53;1.93;;;;;;;;;;5004198;28;20402;-41
2022/07/10 02:42:37;;;;;;;3.10;2.17;;;;;;;;;;5005313;28;20362;-41
2022/07/10 02:45:04;;;;;;;4.07;2.40;;;;;;;;;;5005047;28;20862;-40
2022/07/10 02:47:30;;;;;;;4.80;2.33;;;;;;;;;;5005821;28;20682;-43
2022/07/10 02:49:56;;;;;;;4.40;2.40;;;;;;;;;;5005638;28;20180;-43
2022/07/10 02:52:22;;;;;;;3.67;2.27;;;;;;;;;;5007056;28;20652;-43
2022/07/10 02:54:48;;;;;;;4.47;2.30;;;;;;;;;;5002671;28;20180;-42
2022/07/10 02:57:14;;;;;;;5.17;2.10;;;;;;;;;;5005340;28;20965;-43
2022/07/10 02:59:40;;;;;;;3.57;2.50;;;;;;;;;;5007623;28;20164;-43
2022/07/10 03:02:07;;;;;;;4.13;2.93;;;;;;;;;;4997062;28;20172;-43
2022/07/10 03:04:33;;;;;;;4.17;3.60;;;;;;;;;;5005598;28;20172;-43
2022/07/10 03:06:59;;;;;;;6.43;4.60;;;;;;;;;;5007195;28;20188;-43
2022/07/10 03:09:25;;;;;;;5.20;4.10;;;;;;;;;;5008937;28;20288;-43
2022/07/10 03:11:52;;;;;;;7.47;4.60;;;;;;;;;;5005582;28;20822;-43
2022/07/10 03:14:18;;;;;;;4.93;4.43;;;;;;;;;;5009103;28;21150;-43
2022/07/10 03:16:44;;;;;;;4.83;4.33;;;;;;;;;;5004975;28;20482;-41
2022/07/10 03:19:10;;;;;;;8.67;4.27;;;;;;;;;;5000199;28;20617;-42
2022/07/10 03:21:36;;;;;;;6.43;4.30;;;;;;;;;;5002772;28;20638;-43
2022/07/10 03:24:03;;;;;;;6.90;3.70;;;;;;;;;;4999873;28;20231;-40
2022/07/10 03:26:29;;;;;;;6.23;3.20;;;;;;;;;;5000995;28;20180;-41
2022/07/10 03:28:56;;;;;;;3.53;3.20;;;;;;;;;;4997482;28;20722;-41
2022/07/10 03:31:22;;;;;;;6.57;3.63;;;;;;;;;;4999663;28;20206;-44
2022/07/10 03:33:48;;;;;;;3.30;2.40;;;;;;;;;;5001589;28;20211;-43
2022/07/10 03:36:14;;;;;;;4.00;2.80;;;;;;;;;;5003462;28;21204;-44
2022/07/10 03:38:41;;;;;;;3.70;2.60;;;;;;;;;;5008104;28;20389;-42
2022/07/10 03:41:07;;;;;;;4.37;2.60;;;;;;;;;;5003140;28;20894;-40
2022/07/10 03:43:33;;;;;;;3.50;2.50;;;;;;;;;;5004749;28;20443;-40
2022/07/10 03:45:59;;;;;;;2.50;2.20;;;;;;;;;;5005710;28;20169;-41
2022/07/10 03:48:25;;;;;;;3.10;2.60;;;;;;;;;;5009074;28;20233;-41
2022/07/10 03:50:52;;;;;;;3.03;1.90;;;;;;;;;;5001558;28;20177;-44
2022/07/10 03:53:18;;;;;;;4.33;2.70;;;;;;;;;;5003515;28;20298;-41
2022/07/10 03:55:45;;;;;;;3.33;2.30;;;;;;;;;;5006763;28;20181;-41
2022/07/10 03:58:11;;;;;;;4.37;2.43;;;;;;;;;;5005264;28;20500;-41
2022/07/10 04:00:38;;;;;;;5.17;2.80;;;;;;;;;;5005892;28;20283;-41
2022/07/10 04:03:05;;;;;;;3.30;2.40;;;;;;;;;;5007826;28;20689;-43
2022/07/10 04:05:31;;;;;;;4.10;2.50;;;;;;;;;;5006502;28;20813;-41
2022/07/10 04:07:58;;;;;;;4.40;2.80;;;;;;;;;;5006044;28;20530;-40
2022/07/10 04:10:25;;;;;;;3.10;2.40;;;;;;;;;;5006734;28;20176;-40
2022/07/10 04:12:51;;;;;;;4.00;2.80;;;;;;;;;;5002889;28;21195;-41
2022/07/10 04:15:18;;;;;;;5.73;2.80;;;;;;;;;;5007139;28;20623;-41
2022/07/10 04:17:44;;;;;;;3.87;3.03;;;;;;;;;;5007497;28;20204;-40
2022/07/10 04:20:10;;;;;;;5.37;3.20;;;;;;;;;;5007208;28;20173;-40
2022/07/10 04:22:36;;;;;;;3.97;2.90;;;;;;;;;;5006786;28;20207;-41
2022/07/10 04:25:03;;;;;;;5.27;4.00;;;;;;;;;;5006302;28;20249;-41
2022/07/10 04:27:29;;;;;;;5.83;4.40;;;;;;;;;;5000916;28;20768;-41
2022/07/10 04:29:56;;;;;;;8.20;4.87;;;;;;;;;;5002895;28;20180;-41
2022/07/10 04:32:22;;;;;;;11.30;5.70;;;;;;;;;;5007081;28;20174;-41
2022/07/10 04:34:48;;;;;;;15.97;5.93;;;;;;;;;;5006608;28;20240;-40
2022/07/10 04:37:14;;;;;;;13.43;5.77;;;;;;;;;;5005918;28;20227;-41
2022/07/10 04:39:41;;;;;;;14.17;5.87;;;;;;;;;;5003387;28;20681;-41
2022/07/10 04:42:08;;;;;;;15.03;5.87;;;;;;;;;;5005964;28;20173;-41
2022/07/10 04:44:34;;;;;;;11.67;6.20;;;;;;;;;;5006914;28;20180;-41
2022/07/10 04:47:00;;;;;;;15.03;6.43;;;;;;;;;;5005421;28;20179;-42
2022/07/10 04:49:27;;;;;;;14.37;6.37;;;;;;;;;;5007780;28;20692;-43
2022/07/10 04:51:53;;;;;;;12.43;5.63;;;;;;;;;;5009069;28;20176;-44
2022/07/10 04:54:19;;;;;;;19.57;6.20;;;;;;;;;;5005660;28;20184;-43
2022/07/10 04:56:45;;;;;;;11.13;5.30;;;;;;;;;;5008047;28;20823;-43
2022/07/10 04:59:11;;;;;;;11.83;5.03;;;;;;;;;;5006580;28;20177;-43
2022/07/10 05:01:37;;;;;;;13.57;5.50;;;;;;;;;;5004310;28;20811;-42
2022/07/10 05:04:04;;;;;;;9.97;5.10;;;;;;;;;;5007601;28;20180;-43
2022/07/10 05:06:30;;;;;;;15.63;5.47;;;;;;;;;;5007221;28;20478;-44
2022/07/10 05:08:56;;;;;;;10.43;4.87;;;;;;;;;;5005617;28;20192;-42
2022/07/10 05:11:23;;;;;;;9.27;4.70;;;;;;;;;;5008953;28;20306;-43
2022/07/10 05:13:50;;;;;;;8.80;4.33;;;;;;;;;;5005570;28;20275;-43
2022/07/10 05:16:16;;;;;;;10.07;5.00;;;;;;;;;;5004744;28;20384;-43
2022/07/10 05:18:42;;;;;;;8.87;4.23;;;;;;;;;;5004158;28;20722;-43
2022/07/10 05:21:09;;;;;;;14.83;5.40;;;;;;;;;;5008657;28;20422;-43
2022/07/10 05:23:36;;;;;;;11.47;5.10;;;;;;;;;;5008816;28;20180;-41
2022/07/10 05:26:02;;;;;;;13.77;4.90;;;;;;;;;;5004637;28;20172;-40
2022/07/10 05:28:28;;;;;;;12.77;4.93;;;;;;;;;;5007734;28;20242;-41
2022/07/10 05:30:54;;;;;;;14.13;5.27;;;;;;;;;;5004255;28;20731;-41
2022/07/10 05:33:20;;;;;;;11.20;4.80;;;;;;;;;;5005166;28;20614;-40
2022/07/10 05:35:47;;;;;;;9.40;4.13;;;;;;;;;;5009074;28;20770;-41
2022/07/10 05:38:13;;;;;;;8.83;4.53;;;;;;;;;;5012340;28;20183;-40
2022/07/10 05:40:39;;;;;;;7.60;4.80;;;;;;;;;;5007066;28;20211;-42
2022/07/10 05:43:05;;;;;;;7.50;4.70;;;;;;;;;;5004563;28;20328;-43
2022/07/10 05:45:31;;;;;;;7.57;5.10;;;;;;;;;;5001590;28;20183;-41
2022/07/10 05:47:57;;;;;;;8.17;4.27;;;;;;;;;;5000439;28;20401;-41
2022/07/10 05:50:23;;;;;;;5.00;3.83;;;;;;;;;;5006071;28;20544;-41
2022/07/10 05:52:49;;;;;;;6.67;2.90;;;;;;;;;;5003925;28;20458;-40
2022/07/10 05:55:16;;;;;;;5.40;3.30;;;;;;;;;;5001299;28;20832;-41
2022/07/10 05:57:42;;;;;;;4.30;2.87;;;;;;;;;;5002209;28;20703;-40
2022/07/10 06:00:08;;;;;;;7.20;2.97;;;;;;;;;;5005822;28;20245;-41
2022/07/10 06:02:35;;;;;;;4.00;2.90;;;;;;;;;;5001964;28;20277;-39
2022/07/10 06:05:01;;;;;;;4.57;2.80;;;;;;;;;;5008187;28;20234;-43
2022/07/10 06:07:27;;;;;;;5.93;2.77;;;;;;;;;;5006621;28;20715;-42
2022/07/10 06:09:54;;;;;;;5.37;2.77;;;;;;;;;;5006451;28;20632;-42
2022/07/10 06:12:20;;;;;;;5.17;2.60;;;;;;;;;;5010396;28;20990;-42
2022/07/10 06:14:46;;;;;;;3.77;2.70;;;;;;;;;;5004594;28;20242;-41
2022/07/10 06:17:12;;;;;;;5.00;2.40;;;;;;;;;;5007161;28;20467;-41
2022/07/10 06:19:38;;;;;;;5.10;2.70;;;;;;;;;;5004554;28;20912;-41
2022/07/10 06:24:49;;;;;;;4.10;2.50;;;;;;;;;;5007357;28;20199;-41
2022/07/10 06:27:15;;;;;;;2.57;2.20;;;;;;;;;;5008594;28;20279;-41
2022/07/10 06:29:41;;;;;;;3.00;2.20;;;;;;;;;;5008503;28;20663;-41
2022/07/10 06:32:08;;;;;;;5.07;2.03;;;;;;;;;;5003829;28;20302;-42
2022/07/10 06:34:34;;;;;;;4.13;2.30;;;;;;;;;;5004316;28;20824;-41
2022/07/10 06:37:00;;;;;;;3.07;2.10;;;;;;;;;;5008792;28;20387;-41
2022/07/10 06:39:26;;;;;;;4.00;2.10;;;;;;;;;;5006462;28;20291;-40
2022/07/10 06:41:52;;;;;;;3.63;2.00;;;;;;;;;;5007932;28;20169;-42
2022/07/10 06:44:18;;;;;;;3.03;1.90;;;;;;;;;;5011052;28;20419;-41
2022/07/10 06:47:55;;;;;;;2.87;1.93;;;;;;;;;;5007415;28;20482;-42
2022/07/10 06:49:30;;;;;;;2.70;1.77;;;;;;;;;;5008256;28;20311;-42
2022/07/10 06:51:56;;;;;;;3.13;1.70;;;;;;;;;;5010426;28;20172;-42
2022/07/10 06:54:22;;;;;;;4.00;2.10;;;;;;;;;;5004723;28;20248;-42
2022/07/10 06:56:49;;;;;;;3.07;1.60;;;;;;;;;;5007403;28;20623;-42
2022/07/10 06:59:15;;;;;;;5.63;2.00;;;;;;;;;;5008535;28;20173;-42
2022/07/10 07:01:41;;;;;;;3.73;2.00;;;;;;;;;;5010078;28;20382;-42
2022/07/10 07:04:07;;;;;;;3.90;2.00;;;;;;;;;;5006437;28;20175;-42
2022/07/10 07:06:33;;;;;;;2.73;1.50;;;;;;;;;;5007617;28;20375;-42
2022/07/10 07:08:59;;;;;;;2.50;1.53;;;;;;;;;;5006218;28;20235;-42
2022/07/10 07:11:25;;;;;;;3.13;2.00;;;;;;;;;;5004902;28;20204;-42
2022/07/10 07:13:51;;;;;;;3.60;2.10;;;;;;;;;;5008083;28;20176;-42
2022/07/10 07:16:20;;;;;;;4.37;2.10;;;;;;;;;;5008457;28;20401;-42
2022/07/10 07:18:52;;;;;;;3.43;1.70;;;;;;;;;;5005657;28;20196;-42
2022/07/10 07:24:04;;;;;;;3.23;2.00;;;;;;;;;;5009676;28;20322;-42
2022/07/10 07:26:30;;;;;;;2.20;1.63;;;;;;;;;;5006866;28;20573;-41
2022/07/10 07:28:56;;;;;;;5.07;2.03;;;;;;;;;;5006357;28;20335;-42
2022/07/10 07:31:22;;;;;;;4.60;2.17;;;;;;;;;;5008190;28;20172;-42
2022/07/10 07:33:48;;;;;;;4.70;1.90;;;;;;;;;;5008835;28;20244;-42
2022/07/10 07:36:14;;;;;;;4.00;2.00;;;;;;;;;;5008222;28;20208;-42
2022/07/10 07:38:40;;;;;;;2.67;1.77;;;;;;;;;;5013059;28;20168;-42
2022/07/10 07:41:06;;;;;;;2.37;1.60;;;;;;;;;;5006573;28;20254;-42
2022/07/10 07:43:32;;;;;;;3.80;1.90;;;;;;;;;;5003191;28;20269;-42
2022/07/10 07:45:58;;;;;;;3.03;1.70;;;;;;;;;;5008772;28;20178;-41
2022/07/10 07:48:25;;;;;;;3.77;1.87;;;;;;;;;;5003389;28;20176;-43
2022/07/10 07:50:51;;;;;;;2.13;1.37;;;;;;;;;;5003256;28;20176;-42
2022/07/10 07:53:17;;;;;;;2.63;1.80;;;;;;;;;;5007454;28;20263;-44
2022/07/10 07:55:43;;;;;;;2.30;1.50;;;;;;;;;;5005601;28;20172;-42
2022/07/10 07:58:09;;;;;;;2.97;1.50;;;;;;;;;;5004697;28;20204;-40
2022/07/10 08:00:35;;;;;;;2.00;1.40;;;;;;;;;;5006453;28;20176;-42
2022/07/10 08:03:01;;;;;;;2.87;1.70;;;;;;;;;;5005235;28;20523;-42
2022/07/10 08:05:27;;;;;;;5.83;1.70;;;;;;;;;;5001430;28;20173;-42
2022/07/10 08:07:54;;;;;;;2.23;1.73;;;;;;;;;;5006369;28;20560;-43
2022/07/10 08:10:26;;;;;;;1.60;1.50;;;;;;;;;;5003494;28;20177;-43
2022/07/10 08:12:52;;;;;;;2.80;1.50;;;;;;;;;;5007176;28;20585;-43
2022/07/10 08:15:21;;;;;;;2.90;1.50;;;;;;;;;;5011338;28;20180;-43
2022/07/10 08:17:48;;;;;;;5.47;2.20;;;;;;;;;;5009123;28;20204;-43
2022/07/10 08:20:14;;;;;;;3.67;1.60;;;;;;;;;;5003846;28;20647;-43
2022/07/10 08:22:41;;;;;;;3.23;1.60;;;;;;;;;;5006653;28;20172;-43
2022/07/10 08:25:07;;;;;;;6.13;1.77;;;;;;;;;;5004630;28;21027;-43
2022/07/10 08:27:34;;;;;;;3.53;1.40;;;;;;;;;;5005819;28;20573;-43
2022/07/10 08:30:00;;;;;;;1.93;1.10;;;;;;;;;;5007864;28;20292;-42
2022/07/10 08:32:27;;;;;;;2.20;1.23;;;;;;;;;;5006919;28;20180;-42
2022/07/10 08:34:53;;;;;;;3.93;1.20;;;;;;;;;;5001179;28;20372;-44
2022/07/10 08:37:19;;;;;;;2.63;1.10;;;;;;;;;;5006797;28;20211;-42
2022/07/10 08:39:46;;;;;;;2.43;1.13;;;;;;;;;;5003845;28;20173;-42
2022/07/10 08:42:12;;;;;;;1.67;1.10;;;;;;;;;;5004595;28;20173;-42
2022/07/10 08:44:39;;;;;;;1.73;1.20;;;;;;;;;;4995487;28;20887;-42
2022/07/10 08:47:05;;;;;;;1.63;1.30;;;;;;;;;;5005561;28;20176;-42
2022/07/10 08:49:33;;;;;;;2.47;1.37;;;;;;;;;;5005124;28;20180;-41
2022/07/10 08:52:03;;;;;;;4.57;1.30;;;;;;;;;;5004363;28;21183;-42
2022/07/10 08:54:30;;;;;;;1.97;1.30;;;;;;;;;;5001080;28;20246;-43
2022/07/10 08:57:00;;;;;;;4.30;1.63;;;;;;;;;;5000580;28;21074;-42
2022/07/10 08:59:26;;;;;;;2.90;1.50;;;;;;;;;;5003960;28;20945;-42
2022/07/10 09:01:53;;;;;;;2.17;1.30;;;;;;;;;;5006539;28;21033;-42
2022/07/10 09:04:21;;;;;;;2.37;1.33;;;;;;;;;;5003948;28;20173;-42
2022/07/10 09:06:47;;;;;;;2.67;1.40;;;;;;;;;;5005539;28;20183;-42
2022/07/10 09:09:13;;;;;;;1.83;1.10;;;;;;;;;;5001790;28;20184;-43
2022/07/10 09:11:42;;;;;;;2.90;1.30;;;;;;;;;;5004718;28;20172;-42
2022/07/10 09:14:08;;;;;;;2.63;1.20;;;;;;;;;;5005440;28;20221;-42
2022/07/10 09:16:35;;;;;;;5.70;1.53;;;;;;;;;;5009683;28;20224;-42
2022/07/10 09:19:19;;;;;;;1.97;1.10;;;;;;;;;;5004360;28;20233;-42
2022/07/10 09:21:46;;;;;;;4.10;1.60;;;;;;;;;;5000868;28;20173;-42
2022/07/10 09:24:12;;;;;;;2.00;1.10;;;;;;;;;;5004916;28;20165;-42
2022/07/10 09:26:39;;;;;;;1.20;1.10;;;;;;;;;;5005312;28;20189;-43
2022/07/10 09:29:12;;;;;;;2.33;1.13;;;;;;;;;;4995608;28;20338;-43
2022/07/10 09:31:54;;;;;;;5.60;1.30;;;;;;;;;;5007310;28;20180;-42
2022/07/10 09:34:47;;;;;;;1.20;1.10;;;;;;;;;;5004888;28;20216;-43
2022/07/10 09:37:22;;;;;;;2.57;1.17;;;;;;;;;;4999141;28;20212;-43
2022/07/10 09:39:57;;;;;;;2.07;1.10;;;;;;;;;;5005130;28;22251;-43
2022/07/10 09:42:36;;;;;;;2.37;1.00;;;;;;;;;;5003241;28;21078;-43
2022/07/10 09:45:12;;;;;;;1.63;1.20;;;;;;;;;;5005406;28;20279;-42
2022/07/10 09:47:42;;;;;;;2.07;1.10;;;;;;;;;;5007698;28;20195;-42
2022/07/10 09:50:24;;;;;;;1.70;1.10;;;;;;;;;;5003001;28;20296;-43
2022/07/10 09:52:52;;;;;;;1.87;1.10;;;;;;;;;;5007219;28;20183;-42
2022/07/10 09:55:20;;;;;;;2.87;1.20;;;;;;;;;;5005296;28;21004;-43
2022/07/10 09:57:50;;;;;;;2.43;1.33;;;;;;;;;;5002273;28;20398;-43
2022/07/10 10:00:17;;;;;;;1.73;1.00;;;;;;;;;;5006380;28;20174;-43
2022/07/10 10:02:43;;;;;;;2.53;1.10;;;;;;;;;;5005268;28;20174;-43
2022/07/10 10:05:09;;;;;;;2.30;0.90;;;;;;;;;;5001247;28;20184;-43
2022/07/10 10:07:38;;;;;;;1.40;1.03;;;;;;;;;;5003712;28;20179;-43
2022/07/10 10:10:06;;;;;;;2.07;1.20;;;;;;;;;;5008117;28;20249;-43
2022/07/10 10:12:36;;;;;;;2.83;1.10;;;;;;;;;;5003152;28;21167;-43
2022/07/10 10:15:02;;;;;;;2.00;1.20;;;;;;;;;;5004052;28;20178;-43
2022/07/10 10:17:29;;;;;;;1.87;1.07;;;;;;;;;;5004697;28;20208;-43
2022/07/10 10:22:41;;;;;;;2.03;0.93;;;;;;;;;;5001776;28;20291;-43
2022/07/10 10:25:07;;;;;;;3.97;1.00;;;;;;;;;;4996482;28;20972;-43
2022/07/10 10:27:34;;;;;;;2.00;1.30;;;;;;;;;;5002125;28;20418;-43
2022/07/10 10:30:00;;;;;;;3.07;1.17;;;;;;;;;;4999404;28;20212;-43
2022/07/10 10:32:28;;;;;;;2.03;1.00;;;;;;;;;;5008266;28;20175;-43
2022/07/10 10:34:58;;;;;;;2.40;1.10;;;;;;;;;;5009659;28;20176;-43
2022/07/10 10:37:51;;;;;;;1.73;1.10;;;;;;;;;;5009608;28;20776;-42
2022/07/10 10:40:33;;;;;;;1.77;1.20;;;;;;;;;;5004121;28;20356;-42
2022/07/10 10:42:59;;;;;;;1.97;1.10;;;;;;;;;;5009007;28;20187;-43
2022/07/10 10:45:34;;;;;;;2.17;1.63;;;;;;;;;;5008826;28;20180;-42
2022/07/10 10:48:00;;;;;;;3.27;1.67;;;;;;;;;;5007087;28;20183;-42
2022/07/10 10:50:40;;;;;;;3.73;1.30;;;;;;;;;;5010464;28;20802;-43
2022/07/10 10:53:12;;;;;;;3.37;1.43;;;;;;;;;;5013127;28;21170;-41
2022/07/10 10:55:40;;;;;;;1.50;0.97;;;;;;;;;;5010207;28;20199;-43
2022/07/10 10:58:16;;;;;;;1.67;1.20;;;;;;;;;;5005575;28;20303;-42
2022/07/10 11:00:42;;;;;;;1.53;0.93;;;;;;;;;;5008234;28;20176;-43
2022/07/10 11:03:15;;;;;;;1.33;1.20;;;;;;;;;;5004781;28;20195;-42
2022/07/10 11:05:42;;;;;;;1.87;1.20;;;;;;;;;;5006462;28;21002;-42
2022/07/10 11:08:09;;;;;;;2.77;1.50;;;;;;;;;;5002893;28;21039;-42
2022/07/10 11:10:36;;;;;;;9.50;6.97;;;;;;;;;;5004075;28;20181;-42
2022/07/10 11:13:07;;;;;;;1.83;1.10;;;;;;;;;;5008238;28;21090;-43
2022/07/10 11:15:34;;;;;;;2.17;1.20;;;;;;;;;;5009518;28;20305;-42
2022/07/10 11:18:05;;;;;;;1.63;1.00;;;;;;;;;;5014497;28;20266;-43
2022/07/10 11:20:38;;;;;;;2.20;1.20;;;;;;;;;;5009884;28;20957;-43
2022/07/10 11:23:04;;;;;;;1.37;1.17;;;;;;;;;;5011241;28;20246;-43
2022/07/10 11:25:50;;;;;;;1.90;1.20;;;;;;;;;;5009987;28;20254;-43
2022/07/10 11:28:22;;;;;;;3.97;1.00;;;;;;;;;;5008904;28;20193;-42
2022/07/10 11:30:48;;;;;;;2.00;1.00;;;;;;;;;;5012759;28;20929;-42
2022/07/10 11:33:14;;;;;;;5.50;1.30;;;;;;;;;;5008476;28;20181;-42
2022/07/10 11:35:41;;;;;;;3.20;2.07;;;;;;;;;;5009333;28;20172;-42
2022/07/10 11:38:07;;;;;;;1.87;1.27;;;;;;;;;;5013472;28;20802;-42
2022/07/10 11:40:37;;;;;;;2.80;1.40;;;;;;;;;;5013695;28;20180;-42
2022/07/10 11:43:06;;;;;;;2.23;1.27;;;;;;;;;;5007529;28;21024;-41
2022/07/10 11:45:35;;;;;;;3.27;1.40;;;;;;;;;;5011095;28;20188;-42
2022/07/10 11:48:01;;;;;;;3.77;1.13;;;;;;;;;;5014023;28;20198;-43
2022/07/10 11:50:27;;;;;;;2.47;2.07;;;;;;;;;;5006923;28;20894;-42
2022/07/10 11:52:54;;;;;;;1.97;1.20;;;;;;;;;;5009597;28;20354;-42
2022/07/10 11:55:22;;;;;;;2.43;1.00;;;;;;;;;;5006504;28;20705;-42
2022/07/10 11:57:49;;;;;;;1.27;1.10;;;;;;;;;;5003989;28;20281;-42
2022/07/10 12:00:23;;;;;;;3.07;2.43;;;;;;;;;;5010683;28;20191;-41
2022/07/10 12:02:49;;;;;;;1.73;1.13;;;;;;;;;;5003331;28;20176;-44
2022/07/10 12:05:34;;;;;;;3.40;1.73;;;;;;;;;;5006782;28;20511;-44
2022/07/10 12:08:00;;;;;;;3.33;1.17;;;;;;;;;;5008376;28;20796;-44
2022/07/10 12:10:30;;;;;;;2.53;1.27;;;;;;;;;;5005919;28;20629;-44
2022/07/10 12:13:10;;;;;;;4.53;2.63;;;;;;;;;;5006176;28;20177;-44
2022/07/10 12:15:38;;;;;;;6.73;2.30;;;;;;;;;;5007865;28;20184;-44
2022/07/10 12:18:07;;;;;;;1.70;1.00;;;;;;;;;;5005487;28;20546;-44
2022/07/10 12:20:34;;;;;;;2.30;1.10;;;;;;;;;;5008296;28;20770;-44
2022/07/10 12:23:00;;;;;;;2.47;1.20;;;;;;;;;;5005725;28;20177;-44
2022/07/10 12:25:26;;;;;;;2.33;1.20;;;;;;;;;;5003641;28;20177;-41
2022/07/10 12:27:57;;;;;;;4.20;1.30;;;;;;;;;;5005806;28;20183;-42
2022/07/10 12:30:23;;;;;;;4.23;1.60;;;;;;;;;;5005493;28;20189;-42
2022/07/10 12:32:50;;;;;;;1.33;1.10;;;;;;;;;;5007237;28;20725;-41
2022/07/10 12:35:16;;;;;;;1.50;1.10;;;;;;;;;;5012855;28;20200;-42
2022/07/10 12:37:52;;;;;;;2.37;1.20;;;;;;;;;;5010916;28;20299;-41
2022/07/10 12:40:31;;;;;;;1.47;1.10;;;;;;;;;;5012088;28;20171;-43
2022/07/10 12:43:07;;;;;;;2.50;1.33;;;;;;;;;;5009687;28;20181;-43
2022/07/10 12:45:33;;;;;;;2.10;1.10;;;;;;;;;;5011545;28;20732;-43
2022/07/10 12:47:59;;;;;;;2.10;1.30;;;;;;;;;;5008574;28;20180;-41
2022/07/10 12:50:26;;;;;;;2.70;1.10;;;;;;;;;;5012389;28;20174;-43
2022/07/10 12:53:08;;;;;;;3.63;1.67;;;;;;;;;;5013605;28;20185;-43
2022/07/10 12:55:37;;;;;;;1.90;1.70;;;;;;;;;;5011614;28;20437;-43
2022/07/10 12:58:08;;;;;;;2.27;1.10;;;;;;;;;;5011772;28;20661;-41
2022/07/10 13:00:35;;;;;;;5.00;1.33;;;;;;;;;;5010592;28;20406;-43
2022/07/10 13:03:14;;;;;;;1.73;1.10;;;;;;;;;;5007137;28;20839;-41
2022/07/10 13:05:40;;;;;;;3.13;1.27;;;;;;;;;;5009883;28;20179;-41
2022/07/10 13:08:15;;;;;;;3.30;1.20;;;;;;;;;;5012508;28;20503;-42
2022/07/10 13:10:42;;;;;;;2.50;1.00;;;;;;;;;;5008225;28;20178;-42
2022/07/10 13:13:08;;;;;;;3.23;1.53;;;;;;;;;;5011027;28;20455;-42
2022/07/10 13:15:40;;;;;;;3.53;1.20;;;;;;;;;;5011944;28;20169;-42
2022/07/10 13:18:13;;;;;;;1.13;0.87;;;;;;;;;;5010832;28;20235;-42
2022/07/10 13:20:39;;;;;;;3.33;2.10;;;;;;;;;;5010621;28;20305;-42
2022/07/10 13:23:06;;;;;;;1.43;1.00;;;;;;;;;;5012190;28;20179;-41
2022/07/10 13:25:32;;;;;;;2.80;1.10;;;;;;;;;;5009683;28;20688;-42
2022/07/10 13:27:59;;;;;;;1.63;0.90;;;;;;;;;;5007931;28;20884;-41
2022/07/10 13:30:25;;;;;;;1.20;0.90;;;;;;;;;;5010941;28;20188;-41
2022/07/10 13:32:51;;;;;;;2.13;1.17;;;;;;;;;;5009697;28;20623;-42
2022/07/10 13:35:17;;;;;;;2.40;0.97;;;;;;;;;;5008705;28;20211;-42
2022/07/10 13:37:44;;;;;;;1.50;1.20;;;;;;;;;;5008683;28;20200;-42
2022/07/10 13:40:10;;;;;;;1.03;0.93;;;;;;;;;;5007991;28;20590;-42
2022/07/10 13:42:36;;;;;;;3.53;3.00;;;;;;;;;;5007628;28;20764;-42
2022/07/10 13:45:02;;;;;;;1.30;1.20;;;;;;;;;;5010345;28;20175;-41
2022/07/10 13:47:28;;;;;;;1.30;1.10;;;;;;;;;;5010409;28;20220;-41
2022/07/10 13:49:55;;;;;;;2.70;1.03;;;;;;;;;;5006802;28;20250;-42
2022/07/10 13:52:21;;;;;;;1.97;0.80;;;;;;;;;;5007127;28;20176;-42
2022/07/10 13:54:47;;;;;;;1.87;0.90;;;;;;;;;;5012529;28;20856;-42
2022/07/10 13:57:13;;;;;;;2.10;1.00;;;;;;;;;;5008041;28;20832;-41
2022/07/10 13:59:39;;;;;;;1.67;1.00;;;;;;;;;;5005206;28;20176;-42
2022/07/10 14:02:05;;;;;;;2.73;0.90;;;;;;;;;;5011107;28;20723;-41
2022/07/10 14:04:32;;;;;;;2.70;1.10;;;;;;;;;;5007735;28;20668;-40
2022/07/10 14:06:58;;;;;;;2.43;0.90;;;;;;;;;;5009961;28;20739;-41
2022/07/10 14:09:24;;;;;;;4.33;0.93;;;;;;;;;;5011312;28;20584;-43
2022/07/10 14:11:51;;;;;;;1.50;0.90;;;;;;;;;;5007728;28;20847;-42
2022/07/10 14:14:17;;;;;;;1.73;1.17;;;;;;;;;;5007254;28;21045;-41
2022/07/10 14:16:43;;;;;;;1.93;1.03;;;;;;;;;;5006775;28;20682;-42
2022/07/10 14:19:09;;;;;;;3.27;1.10;;;;;;;;;;5007650;28;20510;-43
2022/07/10 14:21:37;;;;;;;2.60;0.90;;;;;;;;;;5006725;28;20676;-42
2022/07/10 14:24:04;;;;;;;1.67;1.00;;;;;;;;;;5008999;28;20261;-41
2022/07/10 14:26:31;;;;;;;1.73;0.73;;;;;;;;;;5010195;28;20206;-42
2022/07/10 14:28:58;;;;;;;1.43;0.90;;;;;;;;;;5005450;28;20181;-42
2022/07/10 14:31:24;;;;;;;2.10;0.97;;;;;;;;;;5009269;28;20207;-41
2022/07/10 14:33:50;;;;;;;1.20;0.90;;;;;;;;;;5011132;28;20177;-43
2022/07/10 14:36:16;;;;;;;0.87;0.80;;;;;;;;;;5010656;28;20473;-43
2022/07/10 14:38:42;;;;;;;3.97;0.90;;;;;;;;;;5005183;28;20337;-43
2022/07/10 14:41:08;;;;;;;1.20;0.90;;;;;;;;;;4998144;28;20727;-43
2022/07/10 14:43:34;;;;;;;1.00;0.80;;;;;;;;;;5006938;28;20173;-43
2022/07/10 14:46:03;;;;;;;0.70;0.70;;;;;;;;;;5012635;28;20980;-43
2022/07/10 14:48:30;;;;;;;1.20;0.90;;;;;;;;;;5010697;28;20189;-42
2022/07/10 14:50:57;;;;;;;3.03;1.10;;;;;;;;;;5011950;28;20182;-43
2022/07/10 14:53:24;;;;;;;2.00;0.90;;;;;;;;;;5009152;28;20811;-43
2022/07/10 14:55:50;;;;;;;1.53;0.80;;;;;;;;;;5011951;28;20446;-43